sensor_id;sensor_type;location;lat;lon;timestamp;temperature;humidity
17671;DHT22;8954;48.694;8.940;2023-09-18T05:17:40;18.40;99.90
17671;DHT22;8954;48.694;8.940;2023-09-18T05:20:07;18.30;99.90
17671;DHT22;8954;48.694;8.940;2023-09-18T05:22:33;18.30;99.90
17671;DHT22;8954;48.694;8.940;2023-09-18T05:24:58;18.40;99.90
17671;DHT22;8954;48.694;8.940;2023-09-18T05:27:24;18.40;99.90
17671;DHT22;8954;48.694;8.940;2023-09-18T05:29:50;18.30;99.90
17671;DHT22;8954;48.694;8.940;2023-09-18T05:32:16;18.40;99.90
17671;DHT22;8954;48.694;8.940;2023-09-18T05:34:41;18.40;99.90
17671;DHT22;8954;48.694;8.940;2023-09-18T05:37:07;18.40;99.90
17671;DHT22;8954;48.694;8.940;2023-09-18T05:39:32;18.40;99.90
17671;DHT22;8954;48.694;8.940;2023-09-18T05:41:58;18.40;99.90
17671;DHT22;8954;48.694;8.940;2023-09-18T05:44:24;18.40;99.90
17671;DHT22;8954;48.694;8.940;2023-09-18T05:46:50;18.40;99.90
17671;DHT22;8954;48.694;8.940;2023-09-18T05:49:15;18.60;99.90
17671;DHT22;8954;48.694;8.940;2023-09-18T05:51:41;18.70;99.90
17671;DHT22;8954;48.694;8.940;2023-09-18T05:54:06;18.70;99.90
17671;DHT22;8954;48.694;8.940;2023-09-18T05:56:32;18.80;99.90
17671;DHT22;8954;48.694;8.940;2023-09-18T05:58:57;18.80;99.90
17671;DHT22;8954;48.694;8.940;2023-09-18T06:01:23;18.80;99.90
17671;DHT22;8954;48.694;8.940;2023-09-18T06:03:48;18.70;99.90
17671;DHT22;8954;48.694;8.940;2023-09-18T06:06:14;18.60;99.90
17671;DHT22;8954;48.694;8.940;2023-09-18T06:08:39;18.60;99.90
17671;DHT22;8954;48.694;8.940;2023-09-18T06:11:05;18.60;99.90
17671;DHT22;8954;48.694;8.940;2023-09-18T06:13:30;18.70;99.90
17671;DHT22;8954;48.694;8.940;2023-09-18T06:15:56;18.60;99.90
17671;DHT22;8954;48.694;8.940;2023-09-18T06:18:22;18.60;99.90
17671;DHT22;8954;48.694;8.940;2023-09-18T06:20:48;18.50;99.90
17671;DHT22;8954;48.694;8.940;2023-09-18T06:23:14;18.50;99.90
17671;DHT22;8954;48.694;8.940;2023-09-18T06:25:40;18.60;99.90
17671;DHT22;8954;48.694;8.940;2023-09-18T06:28:06;18.60;99.90
17671;DHT22;8954;48.694;8.940;2023-09-18T06:30:32;18.70;99.90
17671;DHT22;8954;48.694;8.940;2023-09-18T06:32:59;18.70;99.90
17671;DHT22;8954;48.694;8.940;2023-09-18T06:35:25;18.70;99.90
17671;DHT22;8954;48.694;8.940;2023-09-18T06:37:50;18.70;99.90
17671;DHT22;8954;48.694;8.940;2023-09-18T06:40:16;18.80;99.90
17671;DHT22;8954;48.694;8.940;2023-09-18T06:42:41;18.80;99.90
17671;DHT22;8954;48.694;8.940;2023-09-18T06:45:08;18.80;99.90
17671;DHT22;8954;48.694;8.940;2023-09-18T06:47:34;18.90;99.90
17671;DHT22;8954;48.694;8.940;2023-09-18T06:49:59;19.00;99.90
17671;DHT22;8954;48.694;8.940;2023-09-18T06:52:30;19.10;99.90
17671;DHT22;8954;48.694;8.940;2023-09-18T06:54:58;19.10;99.90
17671;DHT22;8954;48.694;8.940;2023-09-18T06:57:24;19.10;99.90
17671;DHT22;8954;48.694;8.940;2023-09-18T06:59:50;19.20;99.90
17671;DHT22;8954;48.694;8.940;2023-09-18T07:02:16;19.30;99.90
17671;DHT22;8954;48.694;8.940;2023-09-18T07:04:42;19.40;99.90
17671;DHT22;8954;48.694;8.940;2023-09-18T07:07:14;19.40;99.90
17671;DHT22;8954;48.694;8.940;2023-09-18T07:09:41;19.40;99.90
17671;DHT22;8954;48.694;8.940;2023-09-18T07:12:08;19.50;99.90
17671;DHT22;8954;48.694;8.940;2023-09-18T07:14:35;19.50;99.90
17671;DHT22;8954;48.694;8.940;2023-09-18T07:17:01;19.50;99.90
17671;DHT22;8954;48.694;8.940;2023-09-18T07:19:27;19.60;99.90
17671;DHT22;8954;48.694;8.940;2023-09-18T07:21:52;19.60;99.90
17671;DHT22;8954;48.694;8.940;2023-09-18T07:24:18;19.60;99.90
17671;DHT22;8954;48.694;8.940;2023-09-18T07:26:47;19.70;99.90
17671;DHT22;8954;48.694;8.940;2023-09-18T07:29:14;19.70;99.90
17671;DHT22;8954;48.694;8.940;2023-09-18T07:31:41;19.80;99.90
17671;DHT22;8954;48.694;8.940;2023-09-18T07:34:06;19.80;99.90
17671;DHT22;8954;48.694;8.940;2023-09-18T07:36:32;19.80;99.90
17671;DHT22;8954;48.694;8.940;2023-09-18T07:38:58;20.00;99.90
17671;DHT22;8954;48.694;8.940;2023-09-18T07:41:24;20.00;99.90
17671;DHT22;8954;48.694;8.940;2023-09-18T07:43:50;20.10;99.90
17671;DHT22;8954;48.694;8.940;2023-09-18T07:46:16;20.20;99.90
17671;DHT22;8954;48.694;8.940;2023-09-18T07:48:41;20.10;99.90
17671;DHT22;8954;48.694;8.940;2023-09-18T07:51:11;20.10;99.90
17671;DHT22;8954;48.694;8.940;2023-09-18T07:53:36;20.10;99.90
17671;DHT22;8954;48.694;8.940;2023-09-18T07:56:03;20.00;99.90
17671;DHT22;8954;48.694;8.940;2023-09-18T07:58:30;19.80;99.90
17671;DHT22;8954;48.694;8.940;2023-09-18T08:00:56;19.90;99.90
17671;DHT22;8954;48.694;8.940;2023-09-18T08:03:25;19.80;99.90
17671;DHT22;8954;48.694;8.940;2023-09-18T08:05:52;19.80;99.90
17671;DHT22;8954;48.694;8.940;2023-09-18T08:08:18;19.70;99.90
17671;DHT22;8954;48.694;8.940;2023-09-18T08:10:46;19.70;99.90
17671;DHT22;8954;48.694;8.940;2023-09-18T08:13:11;19.70;99.90
17671;DHT22;8954;48.694;8.940;2023-09-18T08:15:37;19.70;99.90
17671;DHT22;8954;48.694;8.940;2023-09-18T08:18:03;19.70;99.90
17671;DHT22;8954;48.694;8.940;2023-09-18T08:20:29;19.70;99.90
17671;DHT22;8954;48.694;8.940;2023-09-18T08:22:54;19.60;99.90
17671;DHT22;8954;48.694;8.940;2023-09-18T08:25:20;19.60;99.90
17671;DHT22;8954;48.694;8.940;2023-09-18T08:27:45;19.50;99.90
17671;DHT22;8954;48.694;8.940;2023-09-18T08:30:13;19.30;99.90
17671;DHT22;8954;48.694;8.940;2023-09-18T08:32:40;19.20;99.90
17671;DHT22;8954;48.694;8.940;2023-09-18T08:35:07;19.20;99.90
17671;DHT22;8954;48.694;8.940;2023-09-18T08:37:33;18.90;99.90
17671;DHT22;8954;48.694;8.940;2023-09-18T08:39:58;18.70;99.90
17671;DHT22;8954;48.694;8.940;2023-09-18T08:42:28;18.50;99.90
17671;DHT22;8954;48.694;8.940;2023-09-18T08:44:57;18.50;99.90
17671;DHT22;8954;48.694;8.940;2023-09-18T08:47:24;18.60;99.90
17671;DHT22;8954;48.694;8.940;2023-09-18T08:49:50;18.50;99.90
17671;DHT22;8954;48.694;8.940;2023-09-18T08:52:16;18.50;99.90
17671;DHT22;8954;48.694;8.940;2023-09-18T08:54:43;18.60;99.90
17671;DHT22;8954;48.694;8.940;2023-09-18T08:57:09;18.60;99.90
17671;DHT22;8954;48.694;8.940;2023-09-18T08:59:35;18.50;99.90
17671;DHT22;8954;48.694;8.940;2023-09-18T09:02:04;18.50;99.90
17671;DHT22;8954;48.694;8.940;2023-09-18T09:04:30;18.30;99.90
17671;DHT22;8954;48.694;8.940;2023-09-18T09:06:55;18.30;99.90
17671;DHT22;8954;48.694;8.940;2023-09-18T09:09:25;18.20;99.90
17671;DHT22;8954;48.694;8.940;2023-09-18T09:11:52;18.20;99.90
17671;DHT22;8954;48.694;8.940;2023-09-18T09:14:17;18.20;99.90
17671;DHT22;8954;48.694;8.940;2023-09-18T09:16:50;18.10;99.90
17671;DHT22;8954;48.694;8.940;2023-09-18T09:19:17;18.20;99.90
17671;DHT22;8954;48.694;8.940;2023-09-18T09:21:43;18.30;99.90
17671;DHT22;8954;48.694;8.940;2023-09-18T09:24:10;18.40;99.90
17671;DHT22;8954;48.694;8.940;2023-09-18T09:26:40;18.40;99.90
17671;DHT22;8954;48.694;8.940;2023-09-18T09:29:17;18.30;99.90
17671;DHT22;8954;48.694;8.940;2023-09-18T09:31:44;18.50;99.90
17671;DHT22;8954;48.694;8.940;2023-09-18T09:34:10;18.50;99.90
17671;DHT22;8954;48.694;8.940;2023-09-18T09:36:36;18.40;99.90
17671;DHT22;8954;48.694;8.940;2023-09-18T09:39:02;18.40;99.90
17671;DHT22;8954;48.694;8.940;2023-09-18T09:41:31;18.50;99.90
17671;DHT22;8954;48.694;8.940;2023-09-18T09:43:57;18.50;99.90
17671;DHT22;8954;48.694;8.940;2023-09-18T09:46:24;18.60;99.90
17671;DHT22;8954;48.694;8.940;2023-09-18T09:49:04;18.70;99.90
17671;DHT22;8954;48.694;8.940;2023-09-18T09:51:30;18.90;99.90
17671;DHT22;8954;48.694;8.940;2023-09-18T09:53:57;18.80;99.90
17671;DHT22;8954;48.694;8.940;2023-09-18T09:59:10;19.10;99.90
17671;DHT22;8954;48.694;8.940;2023-09-18T10:01:37;19.10;99.90
17671;DHT22;8954;48.694;8.940;2023-09-18T10:04:12;19.20;99.90
17671;DHT22;8954;48.694;8.940;2023-09-18T10:06:41;19.20;99.90
17671;DHT22;8954;48.694;8.940;2023-09-18T10:09:08;19.10;99.90
17671;DHT22;8954;48.694;8.940;2023-09-18T10:11:41;19.00;99.90
17671;DHT22;8954;48.694;8.940;2023-09-18T10:14:30;18.90;99.90
17671;DHT22;8954;48.694;8.940;2023-09-18T10:16:59;18.60;99.90
17671;DHT22;8954;48.694;8.940;2023-09-18T10:19:39;18.70;99.90
17671;DHT22;8954;48.694;8.940;2023-09-18T10:24:42;18.70;99.90
17671;DHT22;8954;48.694;8.940;2023-09-18T10:27:12;18.70;99.90
17671;DHT22;8954;48.694;8.940;2023-09-18T10:29:41;18.70;99.90
17671;DHT22;8954;48.694;8.940;2023-09-18T10:32:07;18.70;99.90
17671;DHT22;8954;48.694;8.940;2023-09-18T10:34:36;18.80;99.90
17671;DHT22;8954;48.694;8.940;2023-09-18T10:37:03;18.70;99.90
17671;DHT22;8954;48.694;8.940;2023-09-18T10:39:34;18.80;99.90
17671;DHT22;8954;48.694;8.940;2023-09-18T10:42:02;18.70;99.90
17671;DHT22;8954;48.694;8.940;2023-09-18T10:44:29;18.70;99.90
17671;DHT22;8954;48.694;8.940;2023-09-18T10:46:57;18.80;99.90
17671;DHT22;8954;48.694;8.940;2023-09-18T10:49:24;18.90;99.90
17671;DHT22;8954;48.694;8.940;2023-09-18T10:51:54;18.90;99.90
17671;DHT22;8954;48.694;8.940;2023-09-18T10:54:24;18.80;99.90
17671;DHT22;8954;48.694;8.940;2023-09-18T10:56:50;18.70;99.90
17671;DHT22;8954;48.694;8.940;2023-09-18T10:59:16;18.70;99.90
17671;DHT22;8954;48.694;8.940;2023-09-18T11:01:43;19.00;99.90
17671;DHT22;8954;48.694;8.940;2023-09-18T11:04:10;19.00;99.90
17671;DHT22;8954;48.694;8.940;2023-09-18T11:09:27;19.00;99.90
17671;DHT22;8954;48.694;8.940;2023-09-18T11:12:01;19.00;99.90
17671;DHT22;8954;48.694;8.940;2023-09-18T11:14:56;19.10;99.90
17671;DHT22;8954;48.694;8.940;2023-09-18T11:17:40;19.20;99.90
17671;DHT22;8954;48.694;8.940;2023-09-18T11:22:59;19.00;99.90
17671;DHT22;8954;48.694;8.940;2023-09-18T11:25:39;19.10;99.90
17671;DHT22;8954;48.694;8.940;2023-09-18T11:28:15;19.10;99.90
17671;DHT22;8954;48.694;8.940;2023-09-18T11:30:55;19.20;99.90
17671;DHT22;8954;48.694;8.940;2023-09-18T11:33:35;19.10;99.90
17671;DHT22;8954;48.694;8.940;2023-09-18T11:36:04;19.30;99.90
17671;DHT22;8954;48.694;8.940;2023-09-18T11:38:31;19.30;99.90
17671;DHT22;8954;48.694;8.940;2023-09-18T11:40:59;19.20;99.90
17671;DHT22;8954;48.694;8.940;2023-09-18T11:43:28;19.30;99.90
17671;DHT22;8954;48.694;8.940;2023-09-18T11:46:00;19.30;99.90
17671;DHT22;8954;48.694;8.940;2023-09-18T11:48:27;19.40;99.90
17671;DHT22;8954;48.694;8.940;2023-09-18T11:50:56;19.40;99.90
17671;DHT22;8954;48.694;8.940;2023-09-18T11:53:23;19.40;99.90
17671;DHT22;8954;48.694;8.940;2023-09-18T11:55:49;19.40;99.90
17671;DHT22;8954;48.694;8.940;2023-09-18T11:58:15;19.50;99.90
17671;DHT22;8954;48.694;8.940;2023-09-18T12:00:41;19.40;99.90
17671;DHT22;8954;48.694;8.940;2023-09-18T12:03:14;19.40;99.90
17671;DHT22;8954;48.694;8.940;2023-09-18T12:06:02;19.60;99.90
17671;DHT22;8954;48.694;8.940;2023-09-18T12:08:31;19.60;99.90
17671;DHT22;8954;48.694;8.940;2023-09-18T12:10:58;19.80;99.90
17671;DHT22;8954;48.694;8.940;2023-09-18T12:13:25;19.60;99.90
17671;DHT22;8954;48.694;8.940;2023-09-18T12:15:56;19.70;99.90
17671;DHT22;8954;48.694;8.940;2023-09-18T12:18:22;19.70;99.90
17671;DHT22;8954;48.694;8.940;2023-09-18T12:20:50;19.70;99.90
17671;DHT22;8954;48.694;8.940;2023-09-18T12:23:16;19.70;99.90
17671;DHT22;8954;48.694;8.940;2023-09-18T12:25:47;19.80;99.90
17671;DHT22;8954;48.694;8.940;2023-09-18T12:28:13;20.10;99.90
17671;DHT22;8954;48.694;8.940;2023-09-18T12:30:40;20.30;99.90
17671;DHT22;8954;48.694;8.940;2023-09-18T12:33:06;20.80;99.90
17671;DHT22;8954;48.694;8.940;2023-09-18T12:35:32;21.00;99.90
17671;DHT22;8954;48.694;8.940;2023-09-18T12:38:00;21.50;99.90
17671;DHT22;8954;48.694;8.940;2023-09-18T12:40:30;22.40;99.90
17671;DHT22;8954;48.694;8.940;2023-09-18T12:43:00;22.50;99.90
17671;DHT22;8954;48.694;8.940;2023-09-18T12:45:27;22.50;99.90
17671;DHT22;8954;48.694;8.940;2023-09-18T12:47:55;22.30;99.90
17671;DHT22;8954;48.694;8.940;2023-09-18T12:50:22;22.00;99.90
17671;DHT22;8954;48.694;8.940;2023-09-18T12:52:47;22.00;99.90
17671;DHT22;8954;48.694;8.940;2023-09-18T12:55:24;21.90;99.90
17671;DHT22;8954;48.694;8.940;2023-09-18T12:57:51;21.90;99.90
17671;DHT22;8954;48.694;8.940;2023-09-18T13:00:19;22.10;99.90
17671;DHT22;8954;48.694;8.940;2023-09-18T13:02:50;22.40;99.90
17671;DHT22;8954;48.694;8.940;2023-09-18T13:05:25;22.20;99.90
17671;DHT22;8954;48.694;8.940;2023-09-18T13:07:54;22.20;99.90
17671;DHT22;8954;48.694;8.940;2023-09-18T13:10:21;22.10;99.90
17671;DHT22;8954;48.694;8.940;2023-09-18T13:12:51;22.60;99.90
17671;DHT22;8954;48.694;8.940;2023-09-18T13:15:29;22.50;99.90
17671;DHT22;8954;48.694;8.940;2023-09-18T13:17:57;22.50;99.90
17671;DHT22;8954;48.694;8.940;2023-09-18T13:20:28;22.40;99.90
17671;DHT22;8954;48.694;8.940;2023-09-18T13:22:59;22.00;99.90
17671;DHT22;8954;48.694;8.940;2023-09-18T13:25:38;22.30;99.90
17671;DHT22;8954;48.694;8.940;2023-09-18T13:28:06;22.80;99.90
17671;DHT22;8954;48.694;8.940;2023-09-18T13:30:33;23.10;99.90
17671;DHT22;8954;48.694;8.940;2023-09-18T13:33:06;23.80;99.90
17671;DHT22;8954;48.694;8.940;2023-09-18T13:35:33;23.80;99.90
17671;DHT22;8954;48.694;8.940;2023-09-18T13:37:59;23.70;99.90
17671;DHT22;8954;48.694;8.940;2023-09-18T13:40:25;23.40;99.90
17671;DHT22;8954;48.694;8.940;2023-09-18T13:42:50;23.40;99.90
17671;DHT22;8954;48.694;8.940;2023-09-18T13:45:16;23.20;99.90
17671;DHT22;8954;48.694;8.940;2023-09-18T13:47:42;23.10;99.90
17671;DHT22;8954;48.694;8.940;2023-09-18T13:50:09;23.20;99.90
17671;DHT22;8954;48.694;8.940;2023-09-18T13:52:35;23.00;99.90
17671;DHT22;8954;48.694;8.940;2023-09-18T13:55:05;22.90;99.90
17671;DHT22;8954;48.694;8.940;2023-09-18T13:57:34;22.60;99.90
17671;DHT22;8954;48.694;8.940;2023-09-18T14:00:01;22.60;99.90
17671;DHT22;8954;48.694;8.940;2023-09-18T14:02:35;22.90;99.90
17671;DHT22;8954;48.694;8.940;2023-09-18T14:05:01;23.00;99.90
17671;DHT22;8954;48.694;8.940;2023-09-18T14:07:26;23.90;99.90
17671;DHT22;8954;48.694;8.940;2023-09-18T14:09:53;24.20;99.90
17671;DHT22;8954;48.694;8.940;2023-09-18T14:12:19;24.20;99.90
17671;DHT22;8954;48.694;8.940;2023-09-18T14:14:44;23.60;99.90
17671;DHT22;8954;48.694;8.940;2023-09-18T14:17:11;23.70;99.90
17671;DHT22;8954;48.694;8.940;2023-09-18T14:19:37;23.40;99.90
17671;DHT22;8954;48.694;8.940;2023-09-18T14:22:06;23.20;99.90
17671;DHT22;8954;48.694;8.940;2023-09-18T14:24:32;23.20;99.90
17671;DHT22;8954;48.694;8.940;2023-09-18T14:27:00;23.00;99.90
17671;DHT22;8954;48.694;8.940;2023-09-18T14:29:26;23.30;99.90
17671;DHT22;8954;48.694;8.940;2023-09-18T14:31:52;23.40;99.90
17671;DHT22;8954;48.694;8.940;2023-09-18T14:34:17;23.80;99.90
17671;DHT22;8954;48.694;8.940;2023-09-18T14:36:43;23.70;99.90
17671;DHT22;8954;48.694;8.940;2023-09-18T14:39:10;23.60;99.90
17671;DHT22;8954;48.694;8.940;2023-09-18T14:41:36;23.40;99.90
17671;DHT22;8954;48.694;8.940;2023-09-18T14:44:05;23.60;99.90
17671;DHT22;8954;48.694;8.940;2023-09-18T14:46:31;23.40;99.90
17671;DHT22;8954;48.694;8.940;2023-09-18T14:49:01;23.20;99.90
17671;DHT22;8954;48.694;8.940;2023-09-18T14:51:29;23.30;99.90
17671;DHT22;8954;48.694;8.940;2023-09-18T14:53:55;23.30;99.90
17671;DHT22;8954;48.694;8.940;2023-09-18T14:56:21;22.80;99.90
17671;DHT22;8954;48.694;8.940;2023-09-18T14:58:47;22.50;99.90
17671;DHT22;8954;48.694;8.940;2023-09-18T15:01:12;22.40;99.90
17671;DHT22;8954;48.694;8.940;2023-09-18T15:03:40;22.20;99.90
17671;DHT22;8954;48.694;8.940;2023-09-18T15:06:05;22.20;99.90
17671;DHT22;8954;48.694;8.940;2023-09-18T15:08:33;21.90;99.90
17671;DHT22;8954;48.694;8.940;2023-09-18T15:10:59;21.90;99.90
17671;DHT22;8954;48.694;8.940;2023-09-18T15:13:25;21.90;99.90
17671;DHT22;8954;48.694;8.940;2023-09-18T15:15:50;21.90;99.90
17671;DHT22;8954;48.694;8.940;2023-09-18T15:18:16;22.10;99.90
17671;DHT22;8954;48.694;8.940;2023-09-18T15:20:42;22.00;99.90
17671;DHT22;8954;48.694;8.940;2023-09-18T15:23:08;21.90;99.90
17671;DHT22;8954;48.694;8.940;2023-09-18T15:25:35;21.80;99.90
17671;DHT22;8954;48.694;8.940;2023-09-18T15:28:12;21.70;99.90
17671;DHT22;8954;48.694;8.940;2023-09-18T15:30:39;21.60;99.90
17671;DHT22;8954;48.694;8.940;2023-09-18T15:33:04;21.60;99.90
17671;DHT22;8954;48.694;8.940;2023-09-18T15:35:30;21.70;99.90
17671;DHT22;8954;48.694;8.940;2023-09-18T15:37:56;21.40;99.90
17671;DHT22;8954;48.694;8.940;2023-09-18T15:40:22;21.20;99.90
17671;DHT22;8954;48.694;8.940;2023-09-18T15:42:51;21.30;99.90
17671;DHT22;8954;48.694;8.940;2023-09-18T15:45:17;21.40;99.90
17671;DHT22;8954;48.694;8.940;2023-09-18T15:47:43;21.50;99.90
17671;DHT22;8954;48.694;8.940;2023-09-18T15:50:10;21.40;99.90
17671;DHT22;8954;48.694;8.940;2023-09-18T15:52:36;21.20;99.90
17671;DHT22;8954;48.694;8.940;2023-09-18T15:55:03;21.20;99.90
17671;DHT22;8954;48.694;8.940;2023-09-18T15:57:33;21.00;99.90
17671;DHT22;8954;48.694;8.940;2023-09-18T16:00:00;20.90;99.90
17671;DHT22;8954;48.694;8.940;2023-09-18T16:02:32;20.70;99.90
